createdAt,value
2023-03-26T00:02:40.005Z,4.40
2023-03-26T00:05:46.610Z,4.40
2023-03-26T00:08:51.916Z,4.70
2023-03-26T00:11:56.847Z,4.70
2023-03-26T00:15:00.875Z,4.50
2023-03-26T00:18:05.813Z,4.60
2023-03-26T00:21:14.430Z,3.90
2023-03-26T00:24:18.346Z,4.10
2023-03-26T00:27:22.990Z,4.40
2023-03-26T00:30:27.958Z,4.00
2023-03-26T00:33:33.032Z,4.60
2023-03-26T00:36:37.357Z,4.10
2023-03-26T00:39:42.828Z,3.60
2023-03-26T00:42:46.928Z,3.60
2023-03-26T00:45:54.567Z,3.80
2023-03-26T00:49:00.105Z,4.60
2023-03-26T00:52:04.706Z,4.30
2023-03-26T00:58:14.564Z,3.90
2023-03-26T01:01:29.400Z,3.80
2023-03-26T01:04:35.131Z,3.40
2023-03-26T01:07:39.753Z,3.60
2023-03-26T01:10:51.151Z,3.80
2023-03-26T01:14:29.263Z,3.60
2023-03-26T01:17:38.084Z,3.20
2023-03-26T01:20:46.867Z,4.10
2023-03-26T01:23:57.812Z,3.70
2023-03-26T01:27:18.362Z,4.10
2023-03-26T01:30:26.002Z,3.90
2023-03-26T01:33:57.556Z,3.90
2023-03-26T01:37:13.461Z,4.50
2023-03-26T01:40:43.713Z,3.90
2023-03-26T01:43:59.050Z,3.70
2023-03-26T01:47:04.375Z,4.10
2023-03-26T01:50:09.275Z,3.70
2023-03-26T01:53:14.689Z,3.60
2023-03-26T01:56:38.100Z,4.20
2023-03-26T02:00:01.947Z,3.60
2023-03-26T02:03:18.299Z,3.70
2023-03-26T02:06:34.476Z,4.50
2023-03-26T02:09:47.098Z,3.70
2023-03-26T02:12:52.217Z,4.10
2023-03-26T02:16:02.020Z,4.10
2023-03-26T02:19:10.094Z,4.20
2023-03-26T02:22:17.058Z,3.70
2023-03-26T02:25:23.077Z,3.20
2023-03-26T02:28:27.217Z,3.90
2023-03-26T02:31:31.262Z,3.90
2023-03-26T02:34:36.926Z,3.30
2023-03-26T02:37:42.327Z,3.50
2023-03-26T02:40:51.388Z,3.50
2023-03-26T02:43:56.103Z,3.70
2023-03-26T02:47:02.243Z,3.80
2023-03-26T02:50:27.048Z,3.40
2023-03-26T02:53:53.841Z,3.70
2023-03-26T02:57:13.767Z,3.90
2023-03-26T03:00:39.161Z,3.50
2023-03-26T03:04:04.474Z,2.90
2023-03-26T03:07:18.102Z,3.20
2023-03-26T03:10:23.131Z,3.20
2023-03-26T03:13:40.768Z,3.70
2023-03-26T03:16:44.912Z,3.90
2023-03-26T03:19:49.322Z,2.80
2023-03-26T03:22:53.628Z,2.80
2023-03-26T03:25:58.756Z,2.50
2023-03-26T03:29:02.758Z,2.20
2023-03-26T03:32:06.956Z,2.40
2023-03-26T03:35:15.470Z,2.10
2023-03-26T03:38:20.903Z,2.90
2023-03-26T03:41:26.552Z,2.30
2023-03-26T03:44:30.758Z,2.50
2023-03-26T03:47:35.478Z,2.10
2023-03-26T03:50:40.673Z,2.80
2023-03-26T03:54:08.619Z,2.50
2023-03-26T03:57:33.437Z,2.60
2023-03-26T04:00:41.739Z,2.60
2023-03-26T04:07:21.742Z,2.70
2023-03-26T04:10:44.970Z,2.90
2023-03-26T04:13:49.254Z,3.10
2023-03-26T04:17:14.095Z,3.10
2023-03-26T04:23:24.486Z,3.30
2023-03-26T04:26:33.848Z,3.30
2023-03-26T04:29:49.911Z,2.80
2023-03-26T04:32:58.771Z,3.80
2023-03-26T04:36:05.458Z,4.00
2023-03-26T04:39:13.381Z,3.30
2023-03-26T04:42:41.758Z,3.90
2023-03-26T04:45:54.624Z,3.60
2023-03-26T04:49:00.218Z,3.50
2023-03-26T04:52:04.526Z,3.50
2023-03-26T04:55:39.686Z,4.00
2023-03-26T04:58:51.894Z,4.00
2023-03-26T05:01:58.161Z,3.60
2023-03-26T05:05:02.881Z,3.50
2023-03-26T05:08:07.737Z,3.70
2023-03-26T05:14:16.762Z,3.20
2023-03-26T05:17:22.743Z,3.30
2023-03-26T05:20:30.248Z,4.00
2023-03-26T05:23:34.468Z,3.40
2023-03-26T05:26:58.348Z,3.30
2023-03-26T05:30:03.797Z,3.50
2023-03-26T05:33:10.565Z,3.10
2023-03-26T05:36:24.213Z,3.50
2023-03-26T05:39:39.100Z,3.50
2023-03-26T05:43:01.740Z,4.10
2023-03-26T05:46:12.849Z,4.10
2023-03-26T05:49:16.828Z,3.10
2023-03-26T05:52:20.966Z,3.00
2023-03-26T05:55:58.455Z,3.30
2023-03-26T05:59:28.693Z,2.90
2023-03-26T06:03:12.711Z,3.40
2023-03-26T06:06:20.952Z,3.30
2023-03-26T06:09:32.958Z,3.10
2023-03-26T06:12:37.086Z,3.30
2023-03-26T06:15:42.318Z,2.80
2023-03-26T06:19:07.166Z,2.70
2023-03-26T06:22:31.563Z,2.90
2023-03-26T06:25:57.336Z,2.40
2023-03-26T06:29:24.291Z,2.40
2023-03-26T06:35:46.175Z,2.40
2023-03-26T06:38:51.913Z,2.30
2023-03-26T06:41:56.160Z,2.40
2023-03-26T06:45:33.716Z,2.60
2023-03-26T06:48:56.413Z,2.40
2023-03-26T06:52:02.258Z,2.50
2023-03-26T06:55:21.528Z,2.40
2023-03-26T06:58:52.105Z,2.50
2023-03-26T07:02:14.697Z,2.20
2023-03-26T07:05:38.645Z,2.10
2023-03-26T07:09:12.057Z,2.10
2023-03-26T07:12:34.549Z,2.00
2023-03-26T07:15:56.564Z,2.90
2023-03-26T07:19:19.450Z,2.20
2023-03-26T07:22:25.186Z,2.50
2023-03-26T07:25:44.545Z,2.60
2023-03-26T07:32:32.560Z,2.80
2023-03-26T07:35:51.662Z,2.50
2023-03-26T07:39:06.079Z,2.70
2023-03-26T07:42:16.451Z,3.20
2023-03-26T07:45:42.185Z,2.90
2023-03-26T07:49:15.128Z,3.70
2023-03-26T07:52:33.987Z,5.80
2023-03-26T07:56:18.036Z,4.50
2023-03-26T07:59:47.593Z,5.30
2023-03-26T08:03:19.750Z,3.70
2023-03-26T08:06:53.182Z,4.10
2023-03-26T08:10:35.603Z,5.10
2023-03-26T08:13:57.222Z,2.30
2023-03-26T08:17:07.691Z,3.70
2023-03-26T08:20:11.924Z,4.00
2023-03-26T08:23:50.474Z,3.80
2023-03-26T08:27:21.578Z,3.10
2023-03-26T08:30:27.423Z,2.30
2023-03-26T08:33:32.687Z,3.10
2023-03-26T08:36:37.001Z,2.20
2023-03-26T08:39:42.316Z,2.50
2023-03-26T08:43:21.189Z,2.90
2023-03-26T08:46:47.327Z,2.70
2023-03-26T08:50:21.749Z,2.70
2023-03-26T08:53:38.058Z,3.30
2023-03-26T08:56:53.371Z,2.40
2023-03-26T09:00:05.958Z,2.30
2023-03-26T09:03:47.393Z,2.70
2023-03-26T09:07:15.686Z,2.40
2023-03-26T09:10:51.092Z,2.40
2023-03-26T09:14:23.060Z,2.60
2023-03-26T09:17:29.970Z,2.40
2023-03-26T09:20:55.261Z,2.90
2023-03-26T09:24:35.620Z,2.40
2023-03-26T09:31:14.702Z,2.40
2023-03-26T09:34:34.877Z,2.00
2023-03-26T09:37:59.142Z,2.10
2023-03-26T09:41:16.179Z,2.30
2023-03-26T09:44:46.120Z,2.00
2023-03-26T09:48:05.696Z,1.90
2023-03-26T09:51:31.111Z,1.80
2023-03-26T09:54:44.657Z,2.10
2023-03-26T09:58:19.704Z,2.40
2023-03-26T10:01:49.513Z,1.60
2023-03-26T10:05:17.773Z,1.80
2023-03-26T10:08:37.074Z,1.80
2023-03-26T10:12:02.805Z,1.40
2023-03-26T10:15:31.168Z,1.70
2023-03-26T10:18:54.245Z,1.50
2023-03-26T10:22:09.450Z,1.70
2023-03-26T10:25:38.120Z,1.60
2023-03-26T10:28:54.524Z,1.80
2023-03-26T10:35:37.316Z,2.40
2023-03-26T10:39:02.818Z,1.80
2023-03-26T10:42:22.361Z,1.60
2023-03-26T10:45:49.595Z,2.60
2023-03-26T10:49:01.068Z,2.10
2023-03-26T10:52:12.047Z,2.20
2023-03-26T10:55:45.808Z,1.70
2023-03-26T10:58:50.361Z,1.50
2023-03-26T11:02:19.501Z,1.50
2023-03-26T11:06:11.578Z,1.30
2023-03-26T11:09:39.976Z,1.40
2023-03-26T11:12:48.799Z,1.60
2023-03-26T11:16:15.592Z,1.50
2023-03-26T11:19:38.934Z,2.10
2023-03-26T11:23:00.568Z,1.70
2023-03-26T11:26:17.998Z,1.70
2023-03-26T11:29:35.625Z,1.50
2023-03-26T11:33:08.316Z,1.70
2023-03-26T11:36:16.704Z,1.60
2023-03-26T11:39:28.221Z,1.50
2023-03-26T11:42:32.969Z,1.80
2023-03-26T11:45:42.221Z,1.50
2023-03-26T11:48:50.705Z,1.30
2023-03-26T11:51:54.681Z,1.60
2023-03-26T11:54:59.463Z,1.20
2023-03-26T11:58:06.249Z,1.30
2023-03-26T12:01:16.004Z,1.40
2023-03-26T12:04:28.676Z,1.40
2023-03-26T12:07:35.124Z,1.10
2023-03-26T12:10:43.017Z,1.50
2023-03-26T12:13:56.279Z,1.30
2023-03-26T12:17:12.058Z,1.40
2023-03-26T12:20:33.412Z,1.40
2023-03-26T12:23:45.644Z,1.20
2023-03-26T12:26:58.557Z,1.50
2023-03-26T12:30:23.468Z,1.90
2023-03-26T12:33:34.196Z,1.60
2023-03-26T12:36:39.329Z,1.50
2023-03-26T12:40:09.886Z,1.40
2023-03-26T12:44:53.578Z,1.80
2023-03-26T12:47:55.363Z,1.30
2023-03-26T12:50:41.563Z,1.10
2023-03-26T12:53:48.520Z,1.00
2023-03-26T12:57:11.938Z,1.00
2023-03-26T13:00:29.009Z,1.00
2023-03-26T13:03:51.814Z,1.00
2023-03-26T13:07:15.960Z,0.80
2023-03-26T13:11:06.147Z,1.10
2023-03-26T13:14:35.571Z,0.80
2023-03-26T13:17:45.328Z,1.30
2023-03-26T13:21:18.325Z,0.80
2023-03-26T13:24:25.293Z,0.90
2023-03-26T13:27:32.291Z,1.00
2023-03-26T13:31:08.604Z,1.10
2023-03-26T13:34:36.316Z,1.20
2023-03-26T13:38:06.163Z,1.30
2023-03-26T13:41:30.148Z,1.30
2023-03-26T13:45:11.019Z,1.30
2023-03-26T13:48:22.105Z,1.10
2023-03-26T13:51:33.577Z,1.30
2023-03-26T13:54:49.343Z,1.00
2023-03-26T13:58:12.220Z,1.20
2023-03-26T14:01:22.633Z,1.10
2023-03-26T14:04:35.341Z,1.20
2023-03-26T14:08:01.624Z,1.10
2023-03-26T14:11:13.156Z,1.50
2023-03-26T14:14:44.211Z,1.00
2023-03-26T14:17:55.593Z,1.00
2023-03-26T14:21:21.945Z,1.20
2023-03-26T14:25:03.815Z,1.40
2023-03-26T14:28:26.589Z,1.50
2023-03-26T14:31:39.557Z,1.40
2023-03-26T14:35:04.941Z,1.20
2023-03-26T14:38:24.131Z,1.30
2023-03-26T14:41:50.552Z,1.30
2023-03-26T14:45:22.645Z,3.50
2023-03-26T14:48:43.832Z,1.80
2023-03-26T14:51:58.214Z,1.50
2023-03-26T14:55:13.524Z,1.30
2023-03-26T14:58:42.995Z,1.40
2023-03-26T15:02:22.386Z,1.30
2023-03-26T15:05:48.800Z,1.50
2023-03-26T15:09:36.317Z,1.20
2023-03-26T15:13:05.422Z,1.20
2023-03-26T15:16:09.387Z,1.00
2023-03-26T15:19:51.521Z,1.30
2023-03-26T15:23:13.584Z,1.40
2023-03-26T15:26:37.268Z,1.30
2023-03-26T15:29:56.609Z,1.30
2023-03-26T15:33:38.540Z,1.60
2023-03-26T15:37:12.669Z,1.30
2023-03-26T15:40:22.717Z,1.60
2023-03-26T15:44:22.803Z,1.50
2023-03-26T15:47:38.151Z,1.30
2023-03-26T15:51:20.040Z,1.50
2023-03-26T15:54:32.556Z,1.40
2023-03-26T15:58:27.566Z,1.30
2023-03-26T16:01:37.548Z,1.60
2023-03-26T16:04:57.481Z,1.60
2023-03-26T16:08:19.438Z,1.50
2023-03-26T16:11:43.711Z,2.00
2023-03-26T16:15:14.372Z,1.70
2023-03-26T16:18:25.389Z,1.60
2023-03-26T16:21:34.402Z,2.30
2023-03-26T16:24:46.589Z,2.50
2023-03-26T16:28:08.736Z,2.90
2023-03-26T16:31:37.653Z,2.60
2023-03-26T16:35:02.165Z,2.80
2023-03-26T16:38:13.621Z,2.80
2023-03-26T16:41:29.413Z,2.20
2023-03-26T16:44:51.960Z,3.00
2023-03-26T16:48:04.953Z,2.90
2023-03-26T16:51:30.713Z,2.60
2023-03-26T16:55:04.222Z,2.40
2023-03-26T16:58:36.836Z,2.70
2023-03-26T17:01:48.205Z,2.00
2023-03-26T17:05:01.517Z,2.80
2023-03-26T17:08:35.487Z,2.70
2023-03-26T17:12:07.907Z,2.70
2023-03-26T17:15:41.333Z,4.50
2023-03-26T17:18:50.884Z,4.10
2023-03-26T17:25:25.102Z,4.90
2023-03-26T17:29:10.762Z,3.60
2023-03-26T17:32:15.239Z,3.80
2023-03-26T17:35:40.694Z,4.00
2023-03-26T17:38:47.774Z,3.90
2023-03-26T17:41:55.748Z,4.00
2023-03-26T17:45:09.298Z,5.80
2023-03-26T17:48:20.696Z,6.00
2023-03-26T17:51:40.298Z,6.70
2023-03-26T17:54:48.076Z,5.00
2023-03-26T17:57:57.216Z,5.60
2023-03-26T18:01:29.031Z,5.30
2023-03-26T18:04:37.936Z,7.50
2023-03-26T18:08:23.842Z,6.40
2023-03-26T18:15:11.875Z,5.60
2023-03-26T18:18:25.927Z,12.40
2023-03-26T18:21:37.162Z,16.00
2023-03-26T18:24:42.355Z,12.40
2023-03-26T18:27:46.987Z,12.90
2023-03-26T18:30:51.931Z,13.30
2023-03-26T18:33:59.347Z,17.10
2023-03-26T18:37:24.096Z,11.80
2023-03-26T18:40:34.143Z,16.20
2023-03-26T18:43:43.912Z,11.90
2023-03-26T18:49:56.744Z,15.40
2023-03-26T18:53:00.790Z,17.10
2023-03-26T18:56:19.515Z,14.20
2023-03-26T18:59:32.715Z,7.60
2023-03-26T19:02:38.568Z,10.10
2023-03-26T19:05:43.373Z,11.60
2023-03-26T19:11:57.192Z,21.40
2023-03-26T19:15:13.614Z,19.40
2023-03-26T19:18:25.136Z,19.40
2023-03-26T19:21:29.360Z,18.60
2023-03-26T19:24:34.413Z,16.10
2023-03-26T19:27:38.544Z,18.20
2023-03-26T19:30:43.860Z,17.60
2023-03-26T19:33:58.940Z,15.70
2023-03-26T19:37:16.251Z,15.60
2023-03-26T19:40:25.347Z,16.60
2023-03-26T19:43:29.288Z,15.30
2023-03-26T19:46:53.754Z,14.10
2023-03-26T19:50:07.561Z,12.90
2023-03-26T19:53:16.097Z,11.40
2023-03-26T19:56:22.195Z,10.80
2023-03-26T19:59:26.250Z,10.20
2023-03-26T20:02:30.461Z,10.60
2023-03-26T20:05:35.733Z,10.90
2023-03-26T20:08:40.700Z,11.30
2023-03-26T20:11:46.733Z,12.30
2023-03-26T20:14:50.787Z,11.60
2023-03-26T20:17:55.562Z,12.30
2023-03-26T20:20:59.704Z,11.90
2023-03-26T20:24:12.075Z,12.30
2023-03-26T20:27:16.331Z,13.70
2023-03-26T20:30:36.413Z,13.80
2023-03-26T20:33:42.383Z,13.10
2023-03-26T20:36:47.116Z,16.20
2023-03-26T20:39:51.065Z,19.10
2023-03-26T20:42:55.041Z,17.20
2023-03-26T20:45:59.057Z,18.10
2023-03-26T20:49:03.075Z,13.60
2023-03-26T20:52:07.095Z,13.30
2023-03-26T20:55:15.817Z,13.00
2023-03-26T20:58:31.438Z,12.20
2023-03-26T21:04:42.083Z,12.50
2023-03-26T21:07:46.520Z,12.20
2023-03-26T21:10:50.902Z,11.90
2023-03-26T21:14:15.236Z,11.70
2023-03-26T21:17:22.222Z,12.90
2023-03-26T21:20:32.696Z,13.70
2023-03-26T21:30:02.375Z,12.80
2023-03-26T21:33:06.461Z,13.50
2023-03-26T21:36:12.084Z,12.40
2023-03-26T21:39:16.775Z,11.70
2023-03-26T21:42:21.666Z,10.70
2023-03-26T21:45:26.718Z,11.10
2023-03-26T21:48:31.225Z,10.90
2023-03-26T21:51:36.006Z,13.10
2023-03-26T21:54:41.845Z,11.20
2023-03-26T21:58:16.688Z,11.30
2023-03-26T22:01:33.287Z,11.40
2023-03-26T22:04:54.169Z,10.50
2023-03-26T22:08:03.670Z,12.80
2023-03-26T22:11:10.214Z,13.20
2023-03-26T22:14:14.340Z,13.20
2023-03-26T22:17:19.009Z,13.50
2023-03-26T22:20:25.213Z,13.60
2023-03-26T22:23:36.335Z,12.10
2023-03-26T22:26:40.852Z,12.00
2023-03-26T22:29:45.598Z,16.00
2023-03-26T22:35:56.102Z,13.00
2023-03-26T22:39:00.194Z,13.80
2023-03-26T22:42:05.065Z,10.40
2023-03-26T22:45:10.831Z,12.40
2023-03-26T22:48:16.446Z,13.00
2023-03-26T22:51:20.674Z,13.20
2023-03-26T22:54:24.579Z,12.90
2023-03-26T22:57:29.100Z,13.30
2023-03-26T23:00:33.120Z,11.70
2023-03-26T23:03:39.444Z,13.70
2023-03-26T23:06:43.715Z,12.20
2023-03-26T23:09:47.728Z,11.30
2023-03-26T23:12:52.516Z,11.60
2023-03-26T23:15:57.250Z,11.00
2023-03-26T23:19:01.371Z,10.90
2023-03-26T23:22:05.946Z,11.10
2023-03-26T23:28:14.693Z,10.50
2023-03-26T23:31:18.920Z,9.50
2023-03-26T23:34:23.448Z,9.80
2023-03-26T23:37:29.614Z,10.50
2023-03-26T23:40:33.623Z,9.10
2023-03-26T23:43:40.079Z,8.50
2023-03-26T23:47:00.492Z,9.20
2023-03-26T23:50:05.638Z,10.00
2023-03-26T23:53:09.737Z,10.50
2023-03-26T23:56:13.771Z,9.90
2023-03-26T23:59:17.979Z,9.40
